createdAt,value
2017-09-13T00:04:40.067Z,72.76
2017-09-13T00:09:42.011Z,72.64
2017-09-13T00:14:43.979Z,72.49
2017-09-13T00:19:45.999Z,72.60
2017-09-13T00:24:48.267Z,72.67
2017-09-13T00:29:50.313Z,72.37
2017-09-13T00:34:52.317Z,72.35
2017-09-13T00:39:55.945Z,72.30
2017-09-13T00:44:58.018Z,71.89
2017-09-13T00:50:00.038Z,71.37
2017-09-13T00:55:02.191Z,71.11
2017-09-13T01:00:04.984Z,71.04
2017-09-13T01:05:06.971Z,70.63
2017-09-13T01:10:09.734Z,70.55
2017-09-13T01:15:11.687Z,70.37
2017-09-13T01:20:13.700Z,69.85
2017-09-13T01:25:15.678Z,69.38
2017-09-13T01:30:17.676Z,69.09
2017-09-13T01:35:19.639Z,68.81
2017-09-13T01:40:21.611Z,68.13
2017-09-13T01:45:23.586Z,68.19
2017-09-13T01:50:26.284Z,68.08
2017-09-13T01:55:28.267Z,68.36
2017-09-13T02:00:30.217Z,68.12
2017-09-13T02:05:32.183Z,68.03
2017-09-13T02:10:34.931Z,68.30
2017-09-13T02:15:36.894Z,67.59
2017-09-13T02:20:39.423Z,67.07
2017-09-13T02:25:41.394Z,66.64
2017-09-13T02:30:43.380Z,66.48
2017-09-13T02:35:45.508Z,66.24
2017-09-13T02:40:48.684Z,66.19
2017-09-13T02:45:51.722Z,66.57
2017-09-13T02:50:53.946Z,66.40
2017-09-13T02:55:56.346Z,66.72
2017-09-13T03:00:58.727Z,67.20
2017-09-13T03:06:01.648Z,67.76
2017-09-13T03:11:03.919Z,69.32
2017-09-13T03:16:05.910Z,70.36
2017-09-13T03:21:07.866Z,70.52
2017-09-13T03:26:10.379Z,71.13
2017-09-13T03:31:16.295Z,71.30
2017-09-13T03:36:19.345Z,71.78
2017-09-13T03:41:21.481Z,71.97
2017-09-13T03:46:23.443Z,72.38
2017-09-13T03:51:25.443Z,72.24
2017-09-13T03:56:27.449Z,72.34
2017-09-13T04:01:29.439Z,72.54
2017-09-13T04:06:31.491Z,73.03
2017-09-13T04:11:33.476Z,73.01
2017-09-13T04:16:36.176Z,73.23
2017-09-13T04:21:38.162Z,73.40
2017-09-13T04:26:40.140Z,74.11
2017-09-13T04:31:42.110Z,73.99
2017-09-13T04:36:44.059Z,73.84
2017-09-13T04:41:46.127Z,74.18
2017-09-13T04:46:48.115Z,74.75
2017-09-13T04:51:54.097Z,74.99
2017-09-13T04:56:56.076Z,75.59
2017-09-13T05:01:58.078Z,75.55
2017-09-13T05:07:00.082Z,75.64
2017-09-13T05:12:02.066Z,75.90
2017-09-13T05:17:04.779Z,76.13
2017-09-13T05:22:06.739Z,75.82
2017-09-13T05:27:08.710Z,76.02
2017-09-13T05:32:11.450Z,76.18
2017-09-13T05:37:13.480Z,75.89
2017-09-13T05:42:15.441Z,75.86
2017-09-13T05:47:17.416Z,75.50
2017-09-13T05:52:19.379Z,75.73
2017-09-13T05:57:21.343Z,76.05
2017-09-13T06:02:23.364Z,75.97
2017-09-13T06:07:25.377Z,76.12
2017-09-13T06:12:27.344Z,76.30
2017-09-13T06:17:29.315Z,76.43
2017-09-13T06:22:31.334Z,76.04
2017-09-13T06:27:33.393Z,75.95
2017-09-13T06:32:35.427Z,75.67
2017-09-13T06:37:37.451Z,75.59
2017-09-13T06:42:39.900Z,75.93
2017-09-13T06:47:41.881Z,75.46
2017-09-13T06:52:43.866Z,74.75
2017-09-13T06:57:45.851Z,75.07
2017-09-13T07:02:47.869Z,74.79
2017-09-13T07:07:49.862Z,74.30
2017-09-13T07:12:51.820Z,72.97
2017-09-13T07:17:53.802Z,71.56
2017-09-13T07:22:55.766Z,70.87
2017-09-13T07:27:58.466Z,70.62
2017-09-13T07:33:00.518Z,72.52
2017-09-13T07:38:02.557Z,73.50
2017-09-13T07:43:04.533Z,74.36
2017-09-13T07:48:06.515Z,74.74
2017-09-13T07:53:08.484Z,72.91
2017-09-13T07:58:10.507Z,71.99
2017-09-13T08:03:13.293Z,71.67
2017-09-13T08:08:15.349Z,71.65
2017-09-13T08:13:17.370Z,70.36
2017-09-13T08:18:19.451Z,69.77
2017-09-13T08:23:21.491Z,67.24
2017-09-13T08:28:24.188Z,65.48
2017-09-13T08:33:26.144Z,65.09
2017-09-13T08:38:28.134Z,64.72
2017-09-13T08:43:30.883Z,65.37
2017-09-13T08:48:32.864Z,65.28
2017-09-13T08:53:35.547Z,64.09
2017-09-13T08:58:37.616Z,63.87
2017-09-13T09:03:39.672Z,64.63
2017-09-13T09:08:41.780Z,64.67
2017-09-13T09:13:44.515Z,64.47
2017-09-13T09:18:46.528Z,64.10
2017-09-13T09:23:48.501Z,63.76
2017-09-13T09:28:50.569Z,62.08
2017-09-13T09:33:53.524Z,61.20
2017-09-13T09:38:55.552Z,60.58
2017-09-13T09:43:57.593Z,60.09
2017-09-13T09:48:59.647Z,60.12
2017-09-13T09:54:01.639Z,58.52
2017-09-13T09:59:04.356Z,60.27
2017-09-13T10:04:06.407Z,62.31
2017-09-13T10:09:08.397Z,62.55
2017-09-13T10:14:10.361Z,60.51
2017-09-13T10:19:13.093Z,57.93
2017-09-13T10:24:15.094Z,58.59
2017-09-13T10:29:17.503Z,60.11
2017-09-13T10:34:19.523Z,59.96
2017-09-13T10:39:21.616Z,59.69
2017-09-13T10:44:23.606Z,57.83
2017-09-13T10:49:25.703Z,57.93
2017-09-13T10:54:27.667Z,55.91
2017-09-13T10:59:29.660Z,55.01
2017-09-13T11:04:31.717Z,54.41
2017-09-13T11:09:33.715Z,53.10
2017-09-13T11:14:36.472Z,51.43
2017-09-13T11:19:38.468Z,51.92
2017-09-13T11:24:41.219Z,52.31
2017-09-13T11:29:43.253Z,50.79
2017-09-13T11:34:46.003Z,51.76
2017-09-13T11:39:48.002Z,54.37
2017-09-13T11:44:50.708Z,60.08
2017-09-13T11:49:52.664Z,65.83
2017-09-13T11:54:54.876Z,66.94
2017-09-13T11:59:57.845Z,67.82
2017-09-13T12:04:59.844Z,67.88
2017-09-13T12:10:01.852Z,66.33
2017-09-13T12:15:04.602Z,64.24
2017-09-13T12:20:07.365Z,59.60
2017-09-13T12:25:09.375Z,58.31
2017-09-13T12:30:11.364Z,59.00
2017-09-13T12:35:13.367Z,56.29
2017-09-13T12:40:16.239Z,52.76
2017-09-13T12:45:18.320Z,52.59
2017-09-13T12:50:20.332Z,50.11
2017-09-13T12:55:23.053Z,49.16
2017-09-13T13:00:25.189Z,48.42
2017-09-13T13:05:27.232Z,48.33
2017-09-13T13:10:29.242Z,48.03
2017-09-13T13:15:31.209Z,47.92
2017-09-13T13:20:33.444Z,47.62
2017-09-13T13:25:36.099Z,48.84
2017-09-13T13:30:38.929Z,48.21
2017-09-13T13:35:41.194Z,48.72
2017-09-13T13:40:43.150Z,49.68
2017-09-13T13:45:45.185Z,50.67
2017-09-13T13:50:47.197Z,50.16
2017-09-13T13:55:49.926Z,50.33
2017-09-13T14:00:51.946Z,50.78
2017-09-13T14:05:53.984Z,49.28
2017-09-13T14:10:55.965Z,47.79
2017-09-13T14:15:58.025Z,48.66
2017-09-13T14:21:00.051Z,47.37
2017-09-13T14:26:02.016Z,47.57
2017-09-13T14:31:03.991Z,47.70
2017-09-13T14:36:06.056Z,47.23
2017-09-13T14:41:08.141Z,45.52
2017-09-13T14:46:10.097Z,45.50
2017-09-13T14:51:12.169Z,45.52
2017-09-13T14:56:14.307Z,43.95
2017-09-13T15:01:16.330Z,44.82
2017-09-13T15:06:18.403Z,44.40
2017-09-13T15:11:20.412Z,43.24
2017-09-13T15:16:22.369Z,42.83
2017-09-13T15:21:25.187Z,42.80
2017-09-13T15:26:27.251Z,43.69
2017-09-13T15:31:30.012Z,42.07
2017-09-13T15:36:31.950Z,42.52
2017-09-13T15:41:34.140Z,42.30
2017-09-13T15:46:36.141Z,43.60
2017-09-13T15:51:38.104Z,42.33
2017-09-13T15:56:40.935Z,42.79
2017-09-13T16:01:42.934Z,43.38
2017-09-13T16:06:44.962Z,42.44
2017-09-13T16:11:47.042Z,42.45
2017-09-13T16:16:49.763Z,42.34
2017-09-13T16:21:51.843Z,42.86
2017-09-13T16:26:53.825Z,43.50
2017-09-13T16:31:56.033Z,43.16
2017-09-13T16:36:58.021Z,44.07
2017-09-13T16:42:00.060Z,44.88
2017-09-13T16:47:02.088Z,45.54
2017-09-13T16:52:04.174Z,45.51
2017-09-13T16:57:06.257Z,45.35
2017-09-13T17:02:08.243Z,45.49
2017-09-13T17:07:10.299Z,46.19
2017-09-13T17:12:13.040Z,46.36
2017-09-13T17:17:16.191Z,46.71
2017-09-13T17:22:18.222Z,47.47
2017-09-13T17:27:20.227Z,47.99
2017-09-13T17:32:22.184Z,48.05
2017-09-13T17:37:25.229Z,48.13
2017-09-13T17:42:27.363Z,49.24
2017-09-13T17:47:29.509Z,49.46
2017-09-13T17:52:31.487Z,49.94
2017-09-13T17:57:33.506Z,50.11
2017-09-13T18:02:35.560Z,50.39
2017-09-13T18:07:37.535Z,51.31
2017-09-13T18:12:39.544Z,51.52
2017-09-13T18:17:41.679Z,51.41
2017-09-13T18:22:43.718Z,51.48
2017-09-13T18:27:45.739Z,51.93
2017-09-13T18:32:48.595Z,51.82
2017-09-13T18:37:50.583Z,51.61
2017-09-13T18:42:52.523Z,51.70
2017-09-13T18:47:55.920Z,51.39
2017-09-13T18:52:58.227Z,50.70
2017-09-13T18:58:00.511Z,51.13
2017-09-13T19:03:02.520Z,51.14
2017-09-13T19:08:06.935Z,50.59
2017-09-13T19:13:08.930Z,50.28
2017-09-13T19:18:12.348Z,51.01
2017-09-13T19:23:15.148Z,50.50
2017-09-13T19:28:17.239Z,50.99
2017-09-13T19:33:19.324Z,51.91
2017-09-13T19:38:21.535Z,52.39
2017-09-13T19:43:23.547Z,52.99
2017-09-13T19:48:25.621Z,53.59
2017-09-13T19:53:27.679Z,53.46
2017-09-13T19:58:29.660Z,53.96
2017-09-13T20:03:31.700Z,54.97
2017-09-13T20:08:34.254Z,55.67
2017-09-13T20:13:36.287Z,56.33
2017-09-13T20:18:38.637Z,56.21
2017-09-13T20:23:41.023Z,56.71
2017-09-13T20:28:42.976Z,57.22
2017-09-13T20:33:45.034Z,57.70
2017-09-13T20:38:47.063Z,58.74
2017-09-13T20:43:49.035Z,58.56
2017-09-13T20:48:51.193Z,59.06
2017-09-13T20:53:53.176Z,59.52
2017-09-13T20:58:55.975Z,60.22
2017-09-13T21:03:57.935Z,60.58
2017-09-13T21:08:59.878Z,60.71
2017-09-13T21:14:01.864Z,61.15
2017-09-13T21:19:03.840Z,61.50
2017-09-13T21:24:06.540Z,61.85
2017-09-13T21:29:08.579Z,61.83
2017-09-13T21:34:11.288Z,62.00
2017-09-13T21:39:13.419Z,62.89
2017-09-13T21:44:15.387Z,62.97
2017-09-13T21:49:17.384Z,63.66
2017-09-13T21:54:19.421Z,63.81
2017-09-13T21:59:21.388Z,64.14
2017-09-13T22:04:23.422Z,64.46
2017-09-13T22:09:25.447Z,64.71
2017-09-13T22:14:28.342Z,65.09
2017-09-13T22:19:30.343Z,65.56
2017-09-13T22:24:32.345Z,65.78
2017-09-13T22:29:34.336Z,65.97
2017-09-13T22:34:36.357Z,66.14
2017-09-13T22:39:38.429Z,66.36
2017-09-13T22:44:40.710Z,66.31
2017-09-13T22:49:43.443Z,66.54
2017-09-13T22:54:45.529Z,66.60
2017-09-13T22:59:48.158Z,66.21
2017-09-13T23:04:50.805Z,65.73
2017-09-13T23:09:53.436Z,65.21
2017-09-13T23:14:55.807Z,65.50
2017-09-13T23:19:57.747Z,65.57
2017-09-13T23:25:00.590Z,65.72
2017-09-13T23:30:02.552Z,65.62
2017-09-13T23:35:05.550Z,65.43
2017-09-13T23:40:07.541Z,65.32
2017-09-13T23:45:09.520Z,65.52
2017-09-13T23:50:12.241Z,65.32
2017-09-13T23:55:14.212Z,65.59
